Nearby METAR Reports

 

YCOM - Cooma Snowy Mtns, Australia
Distance from station: NE 158km
Updated: 17/01/2022 14:00
Overcast
Overcast
 Wind from W
Wind: W 11 km/h
Temperature: 22°C
Dew Point: 13°C
Humidity: 57%
Barometer: 1013 hPa
Clouds: Overcast
Visibility: 10 km
Cloud details: Overcast 2865 m
2022/01/17 03:00 YCOM 170300Z AUTO 27006KT 9999 // OVC094 22/13 Q1013
YMAY - Albury Airport, Australia
Distance from station: NNW 165km
Updated: 17/01/2022 14:00
Mostly cloudy
Mostly cloudy
 Wind from W
Wind: W 19 km/h
Temperature: 25°C
Dew Point: 20°C
Humidity: 74%
Barometer: 1011 hPa
Clouds: Mostly cloudy
Visibility: 10 km
Cloud details: Partly cloudy 2256 m
Mostly cloudy 2835 m
2022/01/17 03:00 YMAY 170300Z AUTO 28010KT 9999 // SCT074 BKN093 25/20 Q1011
 
YWGT - Wangaratta Airport, Australia
Distance from station: NW 172km
Updated: 17/01/2022 14:00
Overcast
Overcast
 Wind from NNW
Wind: NNW 17 km/h
Temperature: 27°C
Heat Index: 27°C
Dew Point: 14°C
Humidity: 45%
Barometer: 1009 hPa
Clouds: Overcast
Visibility: 10 km
Cloud details: Overcast 3048 m
2022/01/17 03:00 YWGT 170300Z AUTO 33009KT 9999 // OVC100 27/14 Q1009
YMER - Merimbula Airport, Australia
Distance from station: ENE 192km
Updated: 17/01/2022 14:00
Partly cloudy
Partly cloudy
 Wind from SE
Wind: SE 7 km/h
Temperature: 25°C
Dew Point: 21°C
Humidity: 79%
Barometer: 1007 hPa
Clouds: Partly cloudy
Visibility: 10 km
Cloud details: Partly cloudy 3810 m
2022/01/17 03:00 YMER 170300Z AUTO 14004KT 9999 // SCT125 25/21 Q1007